createdAt,value
2018-02-19T00:00:12.599Z,27.83
2018-02-19T00:02:40.116Z,26.90
2018-02-19T00:05:07.672Z,27.80
2018-02-19T00:07:35.192Z,27.40
2018-02-19T00:10:02.770Z,27.23
2018-02-19T00:12:30.293Z,28.53
2018-02-19T00:14:57.848Z,28.03
2018-02-19T00:17:25.372Z,25.73
2018-02-19T00:19:53.696Z,27.27
2018-02-19T00:22:21.216Z,26.73
2018-02-19T00:24:48.809Z,27.07
2018-02-19T00:27:17.105Z,28.50
2018-02-19T00:29:44.620Z,28.07
2018-02-19T00:32:12.188Z,29.97
2018-02-19T00:34:39.709Z,28.40
2018-02-19T00:37:08.032Z,27.00
2018-02-19T00:39:35.591Z,29.27
2018-02-19T00:42:03.118Z,29.67
2018-02-19T00:44:30.670Z,30.90
2018-02-19T00:46:58.184Z,29.13
2018-02-19T00:49:25.744Z,30.37
2018-02-19T00:51:53.268Z,30.47
2018-02-19T00:54:20.816Z,28.33
2018-02-19T00:56:49.103Z,30.30
2018-02-19T00:59:17.422Z,30.17
2018-02-19T01:01:44.949Z,31.70
2018-02-19T01:04:13.280Z,31.07
2018-02-19T01:06:40.815Z,32.30
2018-02-19T01:09:09.144Z,33.33
2018-02-19T01:11:36.671Z,32.83
2018-02-19T01:14:04.228Z,32.37
2018-02-19T01:16:31.764Z,33.00
2018-02-19T01:18:59.335Z,30.90
2018-02-19T01:21:26.866Z,32.60
2018-02-19T01:23:54.418Z,30.17
2018-02-19T01:26:21.936Z,32.73
2018-02-19T01:28:49.487Z,30.27
2018-02-19T01:31:17.779Z,33.30
2018-02-19T01:33:46.091Z,35.93
2018-02-19T01:36:13.607Z,33.23
2018-02-19T01:38:41.163Z,34.40
2018-02-19T01:41:08.688Z,35.97
2018-02-19T01:43:36.244Z,34.77
2018-02-19T01:46:03.760Z,31.40
2018-02-19T01:48:31.304Z,32.50
2018-02-19T01:50:58.828Z,33.60
2018-02-19T01:53:26.380Z,33.00
2018-02-19T01:55:53.895Z,33.83
2018-02-19T01:58:21.440Z,30.57
2018-02-19T02:00:48.969Z,31.97
2018-02-19T02:03:16.536Z,31.80
2018-02-19T02:08:35.547Z,31.47
2018-02-19T02:11:03.860Z,32.93
2018-02-19T02:13:31.380Z,32.20
2018-02-19T02:15:58.931Z,31.03
2018-02-19T02:18:27.216Z,30.13
2018-02-19T02:20:54.763Z,31.13
2018-02-19T02:23:22.289Z,31.10
2018-02-19T02:25:49.856Z,31.83
2018-02-19T02:28:17.380Z,32.23
2018-02-19T02:30:44.899Z,32.33
2018-02-19T02:33:12.447Z,33.17
2018-02-19T02:35:39.963Z,32.77
2018-02-19T02:38:08.252Z,33.50
2018-02-19T02:40:36.575Z,34.00
2018-02-19T02:43:04.090Z,34.30
2018-02-19T02:45:32.425Z,35.90
2018-02-19T02:47:59.944Z,35.90
2018-02-19T02:50:27.499Z,33.80
2018-02-19T02:52:55.016Z,34.70
2018-02-19T02:55:23.336Z,32.77
2018-02-19T02:57:50.856Z,34.73
2018-02-19T03:00:18.402Z,34.00
2018-02-19T03:02:45.916Z,31.80
2018-02-19T03:05:13.478Z,33.80
2018-02-19T03:07:41.824Z,35.07
2018-02-19T03:10:09.340Z,34.63
2018-02-19T03:12:36.856Z,32.57
2018-02-19T03:15:04.413Z,33.50
2018-02-19T03:17:32.704Z,34.07
2018-02-19T03:20:01.021Z,33.67
2018-02-19T03:22:28.539Z,35.70
2018-02-19T03:24:56.095Z,32.00
2018-02-19T03:27:23.611Z,33.67
2018-02-19T03:29:51.919Z,33.10
2018-02-19T03:32:19.442Z,32.67
2018-02-19T03:34:47.001Z,32.37
2018-02-19T03:37:14.552Z,32.83
2018-02-19T03:39:42.100Z,31.07
2018-02-19T03:42:09.616Z,31.40
2018-02-19T03:44:37.164Z,30.53
2018-02-19T03:47:04.681Z,31.60
2018-02-19T03:49:32.228Z,31.67
2018-02-19T03:52:00.512Z,31.57
2018-02-19T03:54:28.057Z,32.60
2018-02-19T03:56:55.579Z,33.20
2018-02-19T03:59:23.128Z,35.40
2018-02-19T04:01:50.648Z,31.73
2018-02-19T04:04:18.972Z,32.03
2018-02-19T04:06:46.481Z,33.27
2018-02-19T04:09:14.041Z,30.97
2018-02-19T04:11:41.589Z,32.47
2018-02-19T04:14:09.111Z,31.40
2018-02-19T04:16:36.651Z,32.67
2018-02-19T04:19:04.168Z,30.90
2018-02-19T04:21:32.811Z,31.60
2018-02-19T04:24:00.327Z,31.10
2018-02-19T04:26:27.843Z,32.30
2018-02-19T04:28:55.396Z,31.37
2018-02-19T04:31:22.919Z,31.90
2018-02-19T04:33:50.471Z,31.37
2018-02-19T04:36:17.990Z,32.27
2018-02-19T04:38:46.309Z,29.60
2018-02-19T04:41:13.825Z,31.90
2018-02-19T04:43:41.346Z,29.47
2018-02-19T04:46:11.761Z,30.67
2018-02-19T04:48:39.276Z,31.27
2018-02-19T04:51:06.821Z,31.57
2018-02-19T04:53:35.099Z,31.87
2018-02-19T04:56:03.412Z,33.53
2018-02-19T04:58:30.930Z,34.10
2018-02-19T05:00:58.477Z,33.07
2018-02-19T05:03:26.034Z,32.67
2018-02-19T05:05:53.551Z,32.47
2018-02-19T05:08:21.111Z,31.37
2018-02-19T05:10:48.659Z,34.00
2018-02-19T05:13:16.247Z,32.67
2018-02-19T05:15:43.766Z,30.93
2018-02-19T05:18:12.051Z,31.80
2018-02-19T05:20:39.635Z,33.50
2018-02-19T05:23:07.922Z,32.70
2018-02-19T05:25:35.468Z,31.30
2018-02-19T05:28:02.991Z,31.97
2018-02-19T05:30:30.562Z,33.27
2018-02-19T05:32:58.108Z,33.67
2018-02-19T05:35:26.396Z,32.60
2018-02-19T05:37:54.738Z,33.13
2018-02-19T05:40:22.256Z,32.37
2018-02-19T05:42:50.605Z,30.03
2018-02-19T05:45:18.145Z,31.70
2018-02-19T05:47:45.679Z,31.70
2018-02-19T05:50:13.251Z,29.60
2018-02-19T05:52:40.763Z,31.97
2018-02-19T05:55:08.316Z,28.43
2018-02-19T05:57:36.639Z,29.30
2018-02-19T06:00:04.163Z,29.93
2018-02-19T06:02:31.718Z,30.83
2018-02-19T06:04:59.242Z,28.33
2018-02-19T06:07:26.791Z,30.10
2018-02-19T06:09:54.312Z,29.43
2018-02-19T06:12:32.258Z,29.53
2018-02-19T06:14:59.776Z,29.90
2018-02-19T06:17:27.340Z,28.60
2018-02-19T06:19:54.868Z,27.43
2018-02-19T06:22:22.892Z,28.47
2018-02-19T06:24:50.440Z,27.97
2018-02-19T06:27:18.007Z,26.63
2018-02-19T06:29:45.564Z,27.90
2018-02-19T06:32:13.092Z,28.20
2018-02-19T06:34:40.658Z,28.30
2018-02-19T06:37:08.179Z,27.83
2018-02-19T06:39:35.732Z,28.67
2018-02-19T06:42:03.256Z,29.73
2018-02-19T06:44:30.792Z,29.83
2018-02-19T06:46:58.312Z,27.47
2018-02-19T06:49:25.863Z,29.53
2018-02-19T06:51:54.148Z,28.80
2018-02-19T06:54:21.742Z,31.37
2018-02-19T06:56:50.028Z,30.53
2018-02-19T06:59:18.365Z,28.50
2018-02-19T07:01:45.888Z,30.13
2018-02-19T07:04:14.215Z,29.50
2018-02-19T07:06:41.735Z,32.13
2018-02-19T07:09:09.275Z,26.60
2018-02-19T07:11:36.823Z,27.00
2018-02-19T07:14:04.348Z,26.53
2018-02-19T07:16:31.900Z,26.10
2018-02-19T07:18:59.415Z,25.53
2018-02-19T07:21:27.739Z,26.10
2018-02-19T07:23:55.255Z,27.27
2018-02-19T07:26:22.797Z,28.10
2018-02-19T07:28:50.345Z,26.87
2018-02-19T07:31:17.872Z,25.63
2018-02-19T07:33:45.418Z,25.90
2018-02-19T07:36:12.932Z,27.67
2018-02-19T07:38:41.240Z,25.50
2018-02-19T07:41:08.760Z,24.53
2018-02-19T07:43:36.299Z,24.63
2018-02-19T07:46:03.808Z,24.93
2018-02-19T07:48:31.356Z,24.97
2018-02-19T07:50:58.875Z,24.00
2018-02-19T07:53:27.184Z,24.43
2018-02-19T07:55:54.707Z,25.57
2018-02-19T07:58:22.260Z,24.10
2018-02-19T08:00:49.779Z,24.33
2018-02-19T08:03:18.084Z,23.53
2018-02-19T08:05:46.359Z,25.00
2018-02-19T08:08:13.902Z,24.40
2018-02-19T08:10:41.452Z,24.67
2018-02-19T08:13:08.970Z,23.53
2018-02-19T08:15:36.516Z,23.20
2018-02-19T08:18:04.043Z,21.73
2018-02-19T08:20:31.593Z,23.77
2018-02-19T08:22:59.101Z,22.03
2018-02-19T08:25:26.648Z,22.50
2018-02-19T08:27:54.924Z,20.87
2018-02-19T08:30:23.249Z,21.40
2018-02-19T08:32:50.772Z,20.90
2018-02-19T08:35:18.324Z,19.60
2018-02-19T08:37:45.867Z,18.83
2018-02-19T08:40:13.432Z,20.83
2018-02-19T08:42:40.953Z,19.33
2018-02-19T08:45:08.459Z,19.03
2018-02-19T08:47:36.772Z,18.60
2018-02-19T08:50:04.284Z,19.13
2018-02-19T08:52:31.836Z,20.10
2018-02-19T08:54:59.347Z,19.20
2018-02-19T08:57:27.667Z,18.20
2018-02-19T08:59:55.184Z,18.37
2018-02-19T09:02:22.731Z,20.77
2018-02-19T09:04:50.246Z,17.23
2018-02-19T09:07:17.796Z,17.93
2018-02-19T09:09:45.308Z,19.10
2018-02-19T09:12:12.897Z,20.43
2018-02-19T09:14:40.412Z,19.93
2018-02-19T09:17:08.016Z,21.73
2018-02-19T09:19:36.333Z,19.07
2018-02-19T09:22:03.844Z,20.90
2018-02-19T09:24:31.418Z,20.17
2018-02-19T09:26:58.927Z,19.53
2018-02-19T09:29:27.244Z,19.77
2018-02-19T09:31:54.764Z,17.90
2018-02-19T09:34:22.299Z,18.37
2018-02-19T09:36:49.820Z,21.40
2018-02-19T09:39:18.132Z,19.27
2018-02-19T09:41:45.691Z,19.00
2018-02-19T09:44:13.220Z,19.97
2018-02-19T09:46:40.737Z,20.07
2018-02-19T09:49:09.061Z,20.23
2018-02-19T09:51:36.568Z,20.37
2018-02-19T09:54:04.137Z,21.67
2018-02-19T09:56:31.675Z,20.80
2018-02-19T09:58:59.204Z,18.37
2018-02-19T10:01:26.752Z,19.23
2018-02-19T10:03:54.263Z,21.00
2018-02-19T10:06:22.579Z,20.03
2018-02-19T10:08:50.108Z,19.50
2018-02-19T10:11:17.663Z,20.73
2018-02-19T10:13:45.180Z,18.13
2018-02-19T10:16:12.757Z,20.40
2018-02-19T10:18:40.297Z,19.47
2018-02-19T10:21:07.844Z,20.43
2018-02-19T10:23:35.365Z,19.10
2018-02-19T10:26:02.918Z,20.00
2018-02-19T10:28:30.463Z,19.40
2018-02-19T10:30:58.000Z,21.20
2018-02-19T10:33:25.509Z,20.47
2018-02-19T10:35:53.064Z,20.00
2018-02-19T10:38:20.587Z,18.17
2018-02-19T10:40:48.912Z,19.50
2018-02-19T10:43:16.438Z,18.53
2018-02-19T10:45:44.768Z,19.40
2018-02-19T10:48:12.300Z,18.60
2018-02-19T10:50:40.611Z,17.30
2018-02-19T10:53:08.128Z,17.90
2018-02-19T10:55:35.689Z,15.57
2018-02-19T10:58:03.208Z,17.30
2018-02-19T11:00:36.508Z,15.50
2018-02-19T11:03:04.026Z,15.20
2018-02-19T11:05:31.594Z,16.90
2018-02-19T11:07:59.127Z,17.57
2018-02-19T11:10:26.694Z,16.53
2018-02-19T11:12:54.215Z,18.77
2018-02-19T11:15:21.772Z,18.67
2018-02-19T11:17:49.296Z,15.20
2018-02-19T11:20:16.880Z,17.40
2018-02-19T11:22:44.418Z,18.00
2018-02-19T11:25:11.984Z,19.70
2018-02-19T11:27:39.516Z,18.60
2018-02-19T11:30:07.824Z,17.90
2018-02-19T11:32:35.344Z,16.83
2018-02-19T11:35:02.907Z,17.73
2018-02-19T11:37:30.465Z,18.13
2018-02-19T11:39:58.012Z,18.10
2018-02-19T11:42:25.524Z,16.23
2018-02-19T11:44:53.081Z,17.83
2018-02-19T11:47:20.637Z,18.37
2018-02-19T11:49:48.219Z,16.40
2018-02-19T11:52:15.756Z,17.03
2018-02-19T11:54:44.092Z,16.73
2018-02-19T11:57:11.639Z,16.17
2018-02-19T11:59:39.190Z,17.43
2018-02-19T12:02:07.476Z,16.63
2018-02-19T12:04:35.064Z,18.33
2018-02-19T12:07:03.349Z,18.60
2018-02-19T12:09:31.691Z,17.93
2018-02-19T12:11:59.225Z,18.97
2018-02-19T12:14:26.831Z,17.30
2018-02-19T12:16:55.140Z,17.23
2018-02-19T12:19:22.712Z,18.10
2018-02-19T12:21:50.256Z,16.40
2018-02-19T12:24:18.127Z,18.10
2018-02-19T12:26:45.669Z,17.03
2018-02-19T12:29:13.976Z,17.77
2018-02-19T12:31:41.533Z,19.63
2018-02-19T12:34:09.085Z,17.43
2018-02-19T12:36:36.609Z,16.67
2018-02-19T12:39:04.164Z,18.33
2018-02-19T12:41:31.680Z,17.00
2018-02-19T12:43:59.238Z,18.90
2018-02-19T12:46:26.760Z,17.23
2018-02-19T12:48:55.118Z,19.40
2018-02-19T12:51:22.635Z,17.03
2018-02-19T12:53:50.954Z,19.27
2018-02-19T12:56:18.477Z,18.23
2018-02-19T12:58:46.036Z,18.67
2018-02-19T13:01:13.552Z,18.23
2018-02-19T13:03:41.107Z,17.23
2018-02-19T13:06:09.401Z,18.07
2018-02-19T13:08:36.967Z,17.90
2018-02-19T13:11:05.268Z,16.53
2018-02-19T13:13:33.584Z,17.83
2018-02-19T13:16:01.109Z,16.67
2018-02-19T13:18:28.669Z,17.47
2018-02-19T13:20:56.192Z,18.17
2018-02-19T13:23:23.795Z,18.00
2018-02-19T13:25:51.365Z,16.70
2018-02-19T13:28:18.916Z,17.23
2018-02-19T13:30:46.460Z,17.27
2018-02-19T13:33:14.784Z,17.80
2018-02-19T13:35:42.304Z,17.80
2018-02-19T13:38:09.823Z,17.10
2018-02-19T13:40:37.370Z,17.53
2018-02-19T13:43:05.646Z,17.03
2018-02-19T13:45:33.964Z,16.60
2018-02-19T13:48:01.481Z,15.80
2018-02-19T13:50:29.047Z,17.37
2018-02-19T13:52:56.580Z,16.90
2018-02-19T13:55:24.141Z,16.30
2018-02-19T13:57:51.668Z,17.37
2018-02-19T14:00:19.216Z,17.20
2018-02-19T14:02:46.756Z,16.20
2018-02-19T14:05:14.325Z,15.40
2018-02-19T14:07:42.620Z,16.37
2018-02-19T14:10:10.135Z,16.10
2018-02-19T14:12:37.688Z,17.40
2018-02-19T14:15:05.212Z,16.90
2018-02-19T14:17:33.542Z,16.70
2018-02-19T14:20:01.052Z,17.30
2018-02-19T14:22:28.616Z,17.33
2018-02-19T14:24:56.165Z,17.60
2018-02-19T14:27:23.725Z,17.77
2018-02-19T14:29:51.276Z,18.67
2018-02-19T14:32:18.797Z,17.20
2018-02-19T14:34:46.359Z,16.87
2018-02-19T14:37:13.892Z,15.90
2018-02-19T14:39:42.199Z,17.50
2018-02-19T14:42:09.724Z,16.40
2018-02-19T14:44:37.280Z,16.80
2018-02-19T14:47:04.809Z,17.50
2018-02-19T14:49:32.358Z,17.80
2018-02-19T14:51:59.892Z,16.40
2018-02-19T14:54:27.451Z,17.60
2018-02-19T14:56:54.969Z,16.13
2018-02-19T14:59:23.387Z,15.83
2018-02-19T15:01:50.908Z,17.03
2018-02-19T15:04:18.458Z,17.30
2018-02-19T15:06:45.982Z,17.60
2018-02-19T15:09:14.304Z,18.30
2018-02-19T15:11:41.832Z,16.00
2018-02-19T15:14:09.400Z,15.83
2018-02-19T15:16:37.738Z,17.27
2018-02-19T15:19:05.268Z,18.13
2018-02-19T15:21:32.820Z,19.07
2018-02-19T15:24:00.367Z,18.13
2018-02-19T15:26:27.939Z,16.83
2018-02-19T15:28:55.517Z,18.23
2018-02-19T15:31:24.099Z,17.17
2018-02-19T15:33:51.655Z,15.67
2018-02-19T15:36:19.175Z,17.83
2018-02-19T15:38:46.723Z,17.00
2018-02-19T15:41:14.252Z,17.37
2018-02-19T15:43:41.831Z,15.60
2018-02-19T15:46:09.340Z,17.57
2018-02-19T15:48:36.905Z,19.30
2018-02-19T15:51:04.476Z,19.10
2018-02-19T15:53:32.031Z,17.50
2018-02-19T15:55:59.553Z,17.60
2018-02-19T15:58:27.108Z,17.27
2018-02-19T16:00:54.629Z,18.07
2018-02-19T16:03:22.177Z,18.50
2018-02-19T16:05:49.705Z,18.73
2018-02-19T16:08:17.257Z,17.00
2018-02-19T16:10:45.544Z,17.17
2018-02-19T16:13:13.903Z,17.23
2018-02-19T16:15:41.422Z,17.63
2018-02-19T16:18:09.032Z,16.70
2018-02-19T16:20:36.557Z,18.63
2018-02-19T16:23:04.867Z,18.07
2018-02-19T16:25:32.536Z,17.63
2018-02-19T16:28:00.064Z,18.23
2018-02-19T16:30:27.604Z,20.67
2018-02-19T16:32:55.119Z,18.87
2018-02-19T16:35:22.680Z,18.50
2018-02-19T16:37:50.222Z,18.80
2018-02-19T16:40:17.776Z,17.70
2018-02-19T16:42:45.296Z,17.93
2018-02-19T16:45:12.904Z,18.47
2018-02-19T16:47:40.392Z,18.60
2018-02-19T16:50:07.948Z,16.33
2018-02-19T16:52:36.231Z,17.20
2018-02-19T16:55:03.782Z,17.50
2018-02-19T16:57:31.308Z,17.80
2018-02-19T16:59:58.861Z,19.67
2018-02-19T17:02:26.388Z,17.40
2018-02-19T17:04:53.936Z,19.60
2018-02-19T17:07:21.447Z,18.87
2018-02-19T17:09:49.792Z,18.00
2018-02-19T17:12:17.312Z,18.30
2018-02-19T17:14:44.873Z,18.83
2018-02-19T17:17:12.399Z,19.03
2018-02-19T17:19:39.962Z,19.80
2018-02-19T17:22:07.480Z,18.40
2018-02-19T17:24:35.050Z,19.43
2018-02-19T17:27:02.610Z,18.93
2018-02-19T17:29:30.119Z,18.30
2018-02-19T17:31:58.439Z,20.00
2018-02-19T17:34:25.967Z,18.77
2018-02-19T17:36:53.524Z,19.60
2018-02-19T17:39:21.088Z,17.57
2018-02-19T17:41:48.622Z,20.57
2018-02-19T17:44:16.197Z,20.73
2018-02-19T17:46:43.764Z,20.30
2018-02-19T17:49:11.279Z,19.57
2018-02-19T17:51:38.833Z,18.37
2018-02-19T17:54:06.384Z,18.17
2018-02-19T17:56:33.928Z,19.13
2018-02-19T17:59:01.449Z,18.97
2018-02-19T18:01:29.015Z,18.20
2018-02-19T18:03:56.554Z,16.90
2018-02-19T18:06:24.871Z,18.50
2018-02-19T18:08:52.430Z,18.43
2018-02-19T18:11:19.948Z,18.40
2018-02-19T18:13:49.432Z,17.83
2018-02-19T18:16:16.992Z,18.47
2018-02-19T18:18:44.526Z,17.80
2018-02-19T18:21:12.077Z,18.23
2018-02-19T18:23:39.596Z,20.27
2018-02-19T18:26:07.923Z,19.70
2018-02-19T18:28:35.479Z,19.77
2018-02-19T18:31:03.028Z,22.20
2018-02-19T18:33:30.546Z,23.40
2018-02-19T18:35:58.092Z,22.90
2018-02-19T18:38:25.620Z,20.90
2018-02-19T18:40:53.178Z,22.03
2018-02-19T18:43:20.717Z,21.70
2018-02-19T18:45:48.276Z,21.67
2018-02-19T18:48:16.589Z,21.87
2018-02-19T18:50:44.152Z,22.60
2018-02-19T18:53:11.672Z,23.73
2018-02-19T18:55:39.276Z,24.50
2018-02-19T18:58:07.573Z,22.90
2018-02-19T19:00:35.127Z,21.07
2018-02-19T19:03:02.644Z,21.30
2018-02-19T19:05:30.194Z,22.27
2018-02-19T19:08:09.653Z,21.73
2018-02-19T19:10:43.013Z,22.43
2018-02-19T19:13:10.574Z,22.97
2018-02-19T19:15:38.108Z,22.10
2018-02-19T19:18:05.664Z,22.67
2018-02-19T19:20:33.970Z,22.93
2018-02-19T19:23:01.568Z,23.13
2018-02-19T19:25:29.120Z,22.00
2018-02-19T19:27:56.636Z,21.60
2018-02-19T19:30:24.238Z,20.67
2018-02-19T19:32:52.536Z,21.83
2018-02-19T19:35:20.080Z,22.67
2018-02-19T19:37:47.601Z,22.90
2018-02-19T19:40:15.134Z,24.53
2018-02-19T19:42:43.467Z,24.33
2018-02-19T19:45:11.021Z,25.23
2018-02-19T19:47:38.543Z,22.93
2018-02-19T19:50:06.099Z,23.03
2018-02-19T19:52:33.637Z,22.00
2018-02-19T19:55:01.961Z,23.83
2018-02-19T19:57:29.488Z,22.83
2018-02-19T19:59:57.803Z,24.10
2018-02-19T20:02:25.337Z,24.83
2018-02-19T20:04:52.888Z,24.20
2018-02-19T20:07:20.448Z,23.80
2018-02-19T20:09:47.963Z,23.90
2018-02-19T20:12:16.288Z,25.87
2018-02-19T20:14:43.961Z,25.90
2018-02-19T20:17:11.516Z,26.03
2018-02-19T20:19:39.041Z,25.10
2018-02-19T20:22:06.618Z,24.97
2018-02-19T20:24:34.136Z,27.60
2018-02-19T20:27:01.656Z,23.97
2018-02-19T20:29:29.223Z,25.97
2018-02-19T20:31:56.776Z,25.60
2018-02-19T20:34:24.331Z,27.87
2018-02-19T20:36:51.848Z,26.83
2018-02-19T20:39:19.387Z,26.00
2018-02-19T20:41:46.910Z,25.87
2018-02-19T20:44:14.462Z,26.17
2018-02-19T20:46:42.005Z,26.50
2018-02-19T20:49:09.556Z,25.50
2018-02-19T20:51:37.085Z,25.53
2018-02-19T20:54:04.639Z,27.43
2018-02-19T20:56:32.163Z,25.13
2018-02-19T20:58:59.705Z,26.00
2018-02-19T21:01:27.224Z,26.37
2018-02-19T21:03:54.768Z,24.47
2018-02-19T21:06:23.045Z,28.57
2018-02-19T21:08:51.377Z,25.53
2018-02-19T21:11:18.937Z,26.13
2018-02-19T21:13:46.447Z,26.80
2018-02-19T21:16:14.012Z,26.90
2018-02-19T21:18:41.541Z,27.23
2018-02-19T21:21:09.116Z,26.63
2018-02-19T21:23:37.396Z,27.17
2018-02-19T21:26:05.708Z,27.43
2018-02-19T21:28:33.262Z,25.40
2018-02-19T21:31:01.537Z,28.50
2018-02-19T21:33:29.093Z,25.23
2018-02-19T21:35:56.614Z,24.17
2018-02-19T21:38:24.211Z,24.20
2018-02-19T21:40:51.731Z,26.87
2018-02-19T21:43:19.280Z,25.03
2018-02-19T21:45:46.800Z,26.77
2018-02-19T21:48:14.347Z,25.60
2018-02-19T21:50:41.877Z,29.63
2018-02-19T21:53:09.436Z,29.00
2018-02-19T21:55:36.966Z,29.90
2018-02-19T21:58:05.280Z,27.53
2018-02-19T22:00:32.807Z,28.17
2018-02-19T22:03:00.358Z,29.57
2018-02-19T22:05:27.872Z,26.70
2018-02-19T22:07:55.425Z,28.47
2018-02-19T22:10:23.003Z,30.35
2018-02-19T22:12:50.516Z,30.00
2018-02-19T22:15:18.073Z,28.67
2018-02-19T22:17:45.607Z,29.40
2018-02-19T22:20:13.169Z,26.87
2018-02-19T22:22:40.679Z,27.40
2018-02-19T22:25:09.008Z,29.63
2018-02-19T22:27:36.526Z,28.77
2018-02-19T22:30:04.072Z,29.37
2018-02-19T22:32:31.625Z,28.80
2018-02-19T22:34:59.179Z,28.87
2018-02-19T22:37:26.737Z,27.50
2018-02-19T22:39:55.015Z,29.27
2018-02-19T22:42:22.572Z,28.80
2018-02-19T22:44:50.096Z,28.37
2018-02-19T22:47:17.653Z,30.57
2018-02-19T22:49:45.203Z,29.70
2018-02-19T22:52:12.728Z,31.47
2018-02-19T22:54:40.276Z,30.53
2018-02-19T22:57:07.791Z,29.97
2018-02-19T22:59:35.340Z,31.90
2018-02-19T23:02:03.432Z,30.17
2018-02-19T23:04:30.988Z,31.80
2018-02-19T23:06:58.505Z,29.87
2018-02-19T23:09:26.060Z,29.97
2018-02-19T23:11:53.579Z,30.20
2018-02-19T23:14:21.896Z,27.57
2018-02-19T23:16:49.416Z,29.53
2018-02-19T23:19:17.001Z,29.27
2018-02-19T23:21:45.299Z,28.90
2018-02-19T23:24:12.886Z,32.67
2018-02-19T23:26:40.404Z,31.53
2018-02-19T23:29:07.928Z,29.03
2018-02-19T23:31:35.485Z,30.10
2018-02-19T23:34:03.806Z,31.73
2018-02-19T23:36:31.332Z,31.50
2018-02-19T23:38:59.684Z,28.57
2018-02-19T23:41:27.211Z,28.50
2018-02-19T23:43:55.536Z,29.37
2018-02-19T23:46:23.052Z,29.47
2018-02-19T23:48:50.610Z,28.30
2018-02-19T23:51:18.143Z,29.23
2018-02-19T23:53:45.705Z,29.13
2018-02-19T23:56:13.219Z,30.27
2018-02-19T23:58:40.769Z,28.57
